createdAt,value
2023-11-18T00:00:56.862Z,38.63
2023-11-18T00:03:23.574Z,40.10
2023-11-18T00:05:50.156Z,41.17
2023-11-18T00:08:16.802Z,38.85
2023-11-18T00:10:43.997Z,36.53
2023-11-18T00:13:10.622Z,34.53
2023-11-18T00:15:37.236Z,32.15
2023-11-18T00:18:04.006Z,36.10
2023-11-18T00:20:32.332Z,37.78
2023-11-18T00:22:59.185Z,32.30
2023-11-18T00:25:25.916Z,33.00
2023-11-18T00:27:52.582Z,33.00
2023-11-18T00:30:19.202Z,35.67
2023-11-18T00:32:46.022Z,32.78
2023-11-18T00:35:12.869Z,36.88
2023-11-18T00:37:39.459Z,30.70
2023-11-18T00:40:07.785Z,32.88
2023-11-18T00:42:34.362Z,29.58
2023-11-18T00:45:00.947Z,29.02
2023-11-18T00:47:27.522Z,32.83
2023-11-18T00:49:55.085Z,28.30
2023-11-18T00:52:21.775Z,33.00
2023-11-18T00:54:48.289Z,29.98
2023-11-18T00:57:14.887Z,24.95
2023-11-18T00:59:44.761Z,30.55
2023-11-18T01:02:12.150Z,30.30
2023-11-18T01:04:38.993Z,30.75
2023-11-18T01:07:05.602Z,33.20
2023-11-18T01:09:37.730Z,29.05
2023-11-18T01:12:08.384Z,33.70
2023-11-18T01:14:37.311Z,28.95
2023-11-18T01:17:05.665Z,30.23
2023-11-18T01:19:33.060Z,28.20
2023-11-18T01:21:59.624Z,30.77
2023-11-18T01:24:26.167Z,29.77
2023-11-18T01:26:52.708Z,35.75
2023-11-18T01:29:19.216Z,32.67
2023-11-18T01:31:52.086Z,44.08
2023-11-18T01:34:22.901Z,26.92
2023-11-18T01:36:51.266Z,34.67
2023-11-18T01:39:22.307Z,51.80
2023-11-18T01:41:50.113Z,30.45
2023-11-18T01:44:16.896Z,25.55
2023-11-18T01:46:47.478Z,26.20
2023-11-18T01:49:15.492Z,26.42
2023-11-18T01:51:47.150Z,25.60
2023-11-18T01:54:20.172Z,27.20
2023-11-18T01:56:48.673Z,26.15
2023-11-18T01:59:21.824Z,25.35
2023-11-18T02:02:00.657Z,26.23
2023-11-18T02:04:27.894Z,26.90
2023-11-18T02:06:54.968Z,31.33
2023-11-18T02:09:28.755Z,35.97
2023-11-18T02:11:58.434Z,34.83
2023-11-18T02:14:28.076Z,32.35
2023-11-18T02:17:00.358Z,35.15
2023-11-18T02:19:27.995Z,33.90
2023-11-18T02:21:55.475Z,36.35
2023-11-18T02:24:32.048Z,37.45
2023-11-18T02:26:59.799Z,40.90
2023-11-18T02:29:38.651Z,38.83
2023-11-18T02:32:31.780Z,35.70
2023-11-18T02:37:41.266Z,34.13
2023-11-18T02:40:12.854Z,38.65
2023-11-18T02:42:40.349Z,38.65
2023-11-18T02:45:09.758Z,37.67
2023-11-18T02:47:36.331Z,41.08
2023-11-18T02:50:12.248Z,37.47
2023-11-18T02:52:39.328Z,40.00
2023-11-18T02:55:10.040Z,38.30
2023-11-18T02:57:37.891Z,37.95
2023-11-18T03:00:06.099Z,42.55
2023-11-18T03:02:32.893Z,40.83
2023-11-18T03:04:59.586Z,39.88
2023-11-18T03:07:28.278Z,38.47
2023-11-18T03:09:58.545Z,39.58
2023-11-18T03:12:29.008Z,38.83
2023-11-18T03:14:56.548Z,38.05
2023-11-18T03:17:23.334Z,38.65
2023-11-18T03:19:51.719Z,38.47
2023-11-18T03:22:18.358Z,42.58
2023-11-18T03:24:44.864Z,36.53
2023-11-18T03:27:11.430Z,41.22
2023-11-18T03:29:38.106Z,41.70
2023-11-18T03:32:06.553Z,38.25
2023-11-18T03:34:33.887Z,41.72
2023-11-18T03:37:01.145Z,39.78
2023-11-18T03:39:28.522Z,36.83
2023-11-18T03:41:57.446Z,42.83
2023-11-18T03:44:27.252Z,41.90
2023-11-18T03:46:53.777Z,38.35
2023-11-18T03:49:22.011Z,40.17
2023-11-18T03:51:48.689Z,39.42
2023-11-18T03:54:15.185Z,40.80
2023-11-18T03:56:41.870Z,36.58
2023-11-18T03:59:08.513Z,36.72
2023-11-18T04:01:35.645Z,39.10
2023-11-18T04:04:02.489Z,35.55
2023-11-18T04:06:29.145Z,34.40
2023-11-18T04:08:55.716Z,36.60
2023-11-18T04:11:22.334Z,39.13
2023-11-18T04:13:48.917Z,39.10
2023-11-18T04:16:20.303Z,35.60
2023-11-18T04:18:47.041Z,35.13
2023-11-18T04:21:14.702Z,37.15
2023-11-18T04:23:43.722Z,40.67
2023-11-18T04:26:10.630Z,41.33
2023-11-18T04:28:37.940Z,39.33
2023-11-18T04:31:06.232Z,34.08
2023-11-18T04:33:34.170Z,37.20
2023-11-18T04:36:00.870Z,35.97
2023-11-18T04:38:27.982Z,36.45
2023-11-18T04:40:55.527Z,40.00
2023-11-18T04:43:31.059Z,37.50
2023-11-18T04:46:06.674Z,39.10
2023-11-18T04:48:34.281Z,37.00
2023-11-18T04:51:01.497Z,37.95
2023-11-18T04:53:28.150Z,36.75
2023-11-18T04:55:54.773Z,38.10
2023-11-18T04:58:22.210Z,39.80
2023-11-18T05:00:49.407Z,35.20
2023-11-18T05:03:17.902Z,42.40
2023-11-18T05:05:44.890Z,32.28
2023-11-18T05:08:21.750Z,41.22
2023-11-18T05:10:50.278Z,32.55
2023-11-18T05:13:17.930Z,35.83
2023-11-18T05:15:46.297Z,35.92
2023-11-18T05:18:16.914Z,37.63
2023-11-18T05:20:45.257Z,42.88
2023-11-18T05:23:13.069Z,37.90
2023-11-18T05:25:46.395Z,39.70
2023-11-18T05:28:12.979Z,36.13
2023-11-18T05:30:44.309Z,39.20
2023-11-18T05:33:16.202Z,40.65
2023-11-18T05:35:49.876Z,40.20
2023-11-18T05:38:22.698Z,35.13
2023-11-18T05:40:57.924Z,38.78
2023-11-18T05:43:28.461Z,34.35
2023-11-18T05:46:13.634Z,34.85
2023-11-18T05:48:43.913Z,36.45
2023-11-18T05:51:12.168Z,35.45
2023-11-18T05:53:45.177Z,39.80
2023-11-18T05:56:12.087Z,37.58
2023-11-18T05:58:41.859Z,33.05
2023-11-18T06:01:09.027Z,32.97
2023-11-18T06:03:39.870Z,32.30
2023-11-18T06:06:11.615Z,34.47
2023-11-18T06:08:42.753Z,35.67
2023-11-18T06:11:16.085Z,33.63
2023-11-18T06:13:44.784Z,32.00
2023-11-18T06:18:45.930Z,34.13
2023-11-18T06:21:20.099Z,32.88
2023-11-18T06:23:48.554Z,33.05
2023-11-18T06:28:44.590Z,29.95
2023-11-18T06:31:12.678Z,29.30
2023-11-18T06:33:47.246Z,35.58
2023-11-18T06:36:17.945Z,33.00
2023-11-18T06:38:45.263Z,31.27
2023-11-18T06:41:14.554Z,37.22
2023-11-18T06:43:57.592Z,31.88
2023-11-18T06:46:26.258Z,32.72
2023-11-18T06:48:58.782Z,29.77
2023-11-18T06:51:28.298Z,33.00
2023-11-18T06:53:56.413Z,31.35
2023-11-18T06:56:27.107Z,32.10
2023-11-18T06:58:54.481Z,34.38
2023-11-18T07:01:21.713Z,31.95
2023-11-18T07:03:50.031Z,30.75
2023-11-18T07:06:27.837Z,36.20
2023-11-18T07:09:01.371Z,30.25
2023-11-18T07:11:28.835Z,32.70
2023-11-18T07:13:58.491Z,32.17
2023-11-18T07:16:25.893Z,30.38
2023-11-18T07:18:52.902Z,28.10
2023-11-18T07:21:19.936Z,30.08
2023-11-18T07:23:47.279Z,33.70
2023-11-18T07:26:15.073Z,30.85
2023-11-18T07:28:42.479Z,32.95
2023-11-18T07:31:10.165Z,30.45
2023-11-18T07:33:36.747Z,34.40
2023-11-18T07:36:07.065Z,33.92
2023-11-18T07:38:35.903Z,32.60
2023-11-18T07:41:04.000Z,33.40
2023-11-18T07:43:31.635Z,31.55
2023-11-18T07:45:58.404Z,30.38
2023-11-18T07:48:25.076Z,30.83
2023-11-18T07:50:51.774Z,30.55
2023-11-18T07:53:18.508Z,34.97
2023-11-18T07:55:46.044Z,37.22
2023-11-18T07:58:13.177Z,32.22
2023-11-18T08:00:44.032Z,31.67
2023-11-18T08:03:15.217Z,28.20
2023-11-18T08:05:46.761Z,30.02
2023-11-18T08:08:14.448Z,29.88
2023-11-18T08:10:42.190Z,34.47
2023-11-18T08:13:10.377Z,30.90
2023-11-18T08:15:41.022Z,30.42
2023-11-18T08:18:08.926Z,30.33
2023-11-18T08:20:35.825Z,30.73
2023-11-18T08:23:02.548Z,29.08
2023-11-18T08:25:29.235Z,27.08
2023-11-18T08:27:55.708Z,30.15
2023-11-18T08:30:23.083Z,26.98
2023-11-18T08:32:49.776Z,30.58
2023-11-18T08:35:16.842Z,29.58
2023-11-18T08:37:44.384Z,28.63
2023-11-18T08:40:17.619Z,28.48
2023-11-18T08:42:51.762Z,30.45
2023-11-18T08:45:38.538Z,29.63
2023-11-18T08:48:08.728Z,28.13
2023-11-18T08:50:36.783Z,25.98
2023-11-18T08:53:06.507Z,26.73
2023-11-18T08:55:41.441Z,29.10
2023-11-18T08:58:19.941Z,29.25
2023-11-18T09:00:55.939Z,30.67
2023-11-18T09:03:38.275Z,29.10
2023-11-18T09:06:08.137Z,26.38
2023-11-18T09:08:43.619Z,24.08
2023-11-18T09:11:16.025Z,23.83
2023-11-18T09:13:50.875Z,25.20
2023-11-18T09:18:48.327Z,21.00
2023-11-18T09:21:24.210Z,21.48
2023-11-18T09:23:50.743Z,24.42
2023-11-18T09:26:18.038Z,24.80
2023-11-18T09:28:50.976Z,21.73
2023-11-18T09:31:18.008Z,20.55
2023-11-18T09:33:54.393Z,19.27
2023-11-18T09:36:22.845Z,20.80
2023-11-18T09:38:50.834Z,21.25
2023-11-18T09:41:18.222Z,21.08
2023-11-18T09:43:49.703Z,20.70
2023-11-18T09:46:41.799Z,19.52
2023-11-18T09:49:34.721Z,18.45
2023-11-18T09:52:06.147Z,20.60
2023-11-18T09:54:54.364Z,21.33
2023-11-18T09:57:32.259Z,17.50
2023-11-18T10:00:33.477Z,17.40
2023-11-18T10:03:03.250Z,18.08
2023-11-18T10:05:31.400Z,19.95
2023-11-18T10:08:00.938Z,18.63
2023-11-18T10:10:37.369Z,15.40
2023-11-18T10:13:09.976Z,17.17
2023-11-18T10:15:36.768Z,18.05
2023-11-18T10:18:11.253Z,18.45
2023-11-18T10:20:41.045Z,17.70
2023-11-18T10:23:12.523Z,18.27
2023-11-18T10:25:59.491Z,18.42
2023-11-18T10:28:28.474Z,18.75
2023-11-18T10:30:59.090Z,18.17
2023-11-18T10:33:34.390Z,16.88
2023-11-18T10:36:04.814Z,17.88
2023-11-18T10:38:33.287Z,16.75
2023-11-18T10:41:03.741Z,15.65
2023-11-18T10:43:30.378Z,17.92
2023-11-18T10:46:13.065Z,19.20
2023-11-18T10:48:49.076Z,20.17
2023-11-18T10:51:17.655Z,22.27
2023-11-18T10:54:02.175Z,21.17
2023-11-18T10:56:29.905Z,24.20
2023-11-18T10:59:08.863Z,23.75
2023-11-18T11:01:45.311Z,22.55
2023-11-18T11:04:18.253Z,17.20
2023-11-18T11:06:57.577Z,17.10
2023-11-18T11:09:28.263Z,20.63
2023-11-18T11:12:00.286Z,18.92
2023-11-18T11:14:36.718Z,16.08
2023-11-18T11:17:17.770Z,15.52
2023-11-18T11:20:12.235Z,15.02
2023-11-18T11:22:54.164Z,14.80
2023-11-18T11:25:29.801Z,17.40
2023-11-18T11:28:07.039Z,14.88
2023-11-18T11:30:45.434Z,15.68
2023-11-18T11:33:29.934Z,12.55
2023-11-18T11:36:00.884Z,16.40
2023-11-18T11:38:30.023Z,15.73
2023-11-18T11:41:01.557Z,16.65
2023-11-18T11:43:29.136Z,12.10
2023-11-18T11:45:56.778Z,17.17
2023-11-18T11:48:28.701Z,15.02
2023-11-18T11:51:15.271Z,21.25
2023-11-18T11:53:56.253Z,14.15
2023-11-18T11:56:39.075Z,14.98
2023-11-18T11:59:06.087Z,17.48
2023-11-18T12:01:39.387Z,13.43
2023-11-18T12:04:11.518Z,15.65
2023-11-18T12:06:45.759Z,15.10
2023-11-18T12:09:20.424Z,13.10
2023-11-18T12:14:23.473Z,12.43
2023-11-18T12:17:10.890Z,12.75
2023-11-18T12:19:49.125Z,13.82
2023-11-18T12:22:27.678Z,13.50
2023-11-18T12:25:00.130Z,14.82
2023-11-18T12:27:41.999Z,15.77
2023-11-18T12:30:19.262Z,15.05
2023-11-18T12:33:10.332Z,11.88
2023-11-18T12:36:02.662Z,22.65
2023-11-18T12:38:46.580Z,15.23
2023-11-18T12:41:39.324Z,14.07
2023-11-18T12:44:20.926Z,15.43
2023-11-18T12:46:51.540Z,10.27
2023-11-18T12:49:24.532Z,21.92
2023-11-18T12:52:00.047Z,15.13
2023-11-18T12:54:31.091Z,11.65
2023-11-18T12:56:57.573Z,15.73
2023-11-18T12:59:24.887Z,12.38
2023-11-18T13:02:05.179Z,12.38
2023-11-18T13:04:32.248Z,11.93
2023-11-18T13:07:01.091Z,10.98
2023-11-18T13:09:33.491Z,8.43
2023-11-18T13:12:05.249Z,10.40
2023-11-18T13:14:38.181Z,11.70
2023-11-18T13:17:09.770Z,10.32
2023-11-18T13:19:36.523Z,12.93
2023-11-18T13:22:10.124Z,10.40
2023-11-18T13:24:41.739Z,13.25
2023-11-18T13:27:10.469Z,8.10
2023-11-18T13:29:40.462Z,9.88
2023-11-18T13:32:08.290Z,10.68
2023-11-18T13:34:38.769Z,12.65
2023-11-18T13:37:07.872Z,9.63
2023-11-18T13:39:40.752Z,12.50
2023-11-18T13:42:24.914Z,9.70
2023-11-18T13:44:54.219Z,10.35
2023-11-18T13:47:21.501Z,10.10
2023-11-18T13:49:51.621Z,6.93
2023-11-18T13:52:20.179Z,8.02
2023-11-18T13:54:48.939Z,11.90
2023-11-18T13:57:15.870Z,10.55
2023-11-18T13:59:45.298Z,7.85
2023-11-18T14:02:12.981Z,9.80
2023-11-18T14:04:40.807Z,9.43
2023-11-18T14:07:07.356Z,6.20
2023-11-18T14:09:37.333Z,6.10
2023-11-18T14:12:07.402Z,7.25
2023-11-18T14:14:34.457Z,7.90
2023-11-18T14:17:01.108Z,7.10
2023-11-18T14:19:31.175Z,8.15
2023-11-18T14:21:58.590Z,7.88
2023-11-18T14:24:28.676Z,6.65
2023-11-18T14:26:55.813Z,6.28
2023-11-18T14:29:22.312Z,5.57
2023-11-18T14:31:48.797Z,4.75
2023-11-18T14:34:15.390Z,5.72
2023-11-18T14:36:42.790Z,4.68
2023-11-18T14:39:15.016Z,5.05
2023-11-18T14:41:41.916Z,5.18
2023-11-18T14:44:10.658Z,5.80
2023-11-18T14:46:42.212Z,4.55
2023-11-18T14:49:11.400Z,4.15
2023-11-18T14:51:38.468Z,4.43
2023-11-18T14:54:06.904Z,4.03
2023-11-18T14:59:01.095Z,4.20
2023-11-18T15:01:27.845Z,4.32
2023-11-18T15:03:54.453Z,4.30
2023-11-18T15:06:27.760Z,4.10
2023-11-18T15:08:54.966Z,4.13
2023-11-18T15:11:24.897Z,4.80
2023-11-18T15:13:54.220Z,4.05
2023-11-18T15:16:21.214Z,4.55
2023-11-18T15:18:48.792Z,4.50
2023-11-18T15:21:16.429Z,4.35
2023-11-18T15:23:43.352Z,5.10
2023-11-18T15:26:10.831Z,4.50
2023-11-18T15:28:37.600Z,4.28
2023-11-18T15:31:04.516Z,3.92
2023-11-18T15:33:32.877Z,4.30
2023-11-18T15:35:59.972Z,6.63
2023-11-18T15:38:26.757Z,4.75
2023-11-18T15:40:53.509Z,4.30
2023-11-18T15:43:20.249Z,4.78
2023-11-18T15:45:46.862Z,4.95
2023-11-18T15:48:15.641Z,5.40
2023-11-18T15:50:42.827Z,5.20
2023-11-18T15:53:10.085Z,6.72
2023-11-18T15:55:39.250Z,6.90
2023-11-18T15:58:05.923Z,8.88
2023-11-18T16:00:33.026Z,6.85
2023-11-18T16:03:02.607Z,5.60
2023-11-18T16:05:35.604Z,5.80
2023-11-18T16:08:03.657Z,5.90
2023-11-18T16:10:31.463Z,7.20
2023-11-18T16:12:59.318Z,5.18
2023-11-18T16:15:27.465Z,7.72
2023-11-18T16:17:55.810Z,4.25
2023-11-18T16:20:24.307Z,10.30
2023-11-18T16:22:52.317Z,6.93
2023-11-18T16:25:24.352Z,4.22
2023-11-18T16:27:52.812Z,4.35
2023-11-18T16:30:25.164Z,6.13
2023-11-18T16:32:52.549Z,5.57
2023-11-18T16:35:21.150Z,5.63
2023-11-18T16:37:50.094Z,5.80
2023-11-18T16:40:16.960Z,6.63
2023-11-18T16:42:45.156Z,5.82
2023-11-18T16:45:15.677Z,5.80
2023-11-18T16:47:43.895Z,4.97
2023-11-18T16:50:14.058Z,4.50
2023-11-18T16:52:40.949Z,4.85
2023-11-18T16:55:09.600Z,16.20
2023-11-18T16:57:36.921Z,6.05
2023-11-18T17:00:17.649Z,5.38
2023-11-18T17:05:15.376Z,5.03
2023-11-18T17:07:41.914Z,4.95
2023-11-18T17:10:12.834Z,5.03
2023-11-18T17:12:43.902Z,6.72
2023-11-18T17:15:17.235Z,5.18
2023-11-18T17:17:48.066Z,5.43
2023-11-18T17:20:16.805Z,5.07
2023-11-18T17:22:44.355Z,5.25
2023-11-18T17:25:16.524Z,5.88
2023-11-18T17:27:44.850Z,5.57
2023-11-18T17:30:19.040Z,8.90
2023-11-18T17:32:47.812Z,5.95
2023-11-18T17:35:17.062Z,6.30
2023-11-18T17:37:46.428Z,6.60
2023-11-18T17:40:16.624Z,6.75
2023-11-18T17:42:44.906Z,5.85
2023-11-18T17:45:13.608Z,8.65
2023-11-18T17:47:44.017Z,6.60
2023-11-18T17:50:14.015Z,6.85
2023-11-18T17:52:42.419Z,7.82
2023-11-18T17:55:09.550Z,7.07
2023-11-18T17:57:36.466Z,8.18
2023-11-18T18:00:09.590Z,7.75
2023-11-18T18:02:36.253Z,7.28
2023-11-18T18:05:02.886Z,8.32
2023-11-18T18:07:29.431Z,7.90
2023-11-18T18:09:55.904Z,8.98
2023-11-18T18:12:22.382Z,8.57
2023-11-18T18:14:52.633Z,9.07
2023-11-18T18:17:19.329Z,9.57
2023-11-18T18:19:46.464Z,9.20
2023-11-18T18:22:13.445Z,10.75
2023-11-18T18:24:39.980Z,10.07
2023-11-18T18:27:06.642Z,11.38
2023-11-18T18:29:33.223Z,11.73
2023-11-18T18:31:59.931Z,10.65
2023-11-18T18:34:26.447Z,12.68
2023-11-18T18:36:53.003Z,13.18
2023-11-18T18:39:19.515Z,13.77
2023-11-18T18:41:45.970Z,12.90
2023-11-18T18:44:12.444Z,14.57
2023-11-18T18:46:38.904Z,15.45
2023-11-18T18:49:05.479Z,14.90
2023-11-18T18:51:34.347Z,15.90
2023-11-18T18:54:01.036Z,17.48
2023-11-18T18:56:27.662Z,15.00
2023-11-18T18:58:54.349Z,20.15
2023-11-18T19:01:23.623Z,16.98
2023-11-18T19:03:50.191Z,21.38
2023-11-18T19:06:16.725Z,17.98
2023-11-18T19:08:43.339Z,17.85
2023-11-18T19:11:09.878Z,18.77
2023-11-18T19:13:36.746Z,16.55
2023-11-18T19:16:03.351Z,17.75
2023-11-18T19:18:30.480Z,17.13
2023-11-18T19:20:56.976Z,16.85
2023-11-18T19:23:23.449Z,20.23
2023-11-18T19:25:50.017Z,19.85
2023-11-18T19:28:17.271Z,19.25
2023-11-18T19:30:44.820Z,19.25
2023-11-18T19:33:14.314Z,18.33
2023-11-18T19:35:40.924Z,20.38
2023-11-18T19:38:08.187Z,22.75
2023-11-18T19:40:34.906Z,20.95
2023-11-18T19:43:01.565Z,20.77
2023-11-18T19:45:28.643Z,19.63
2023-11-18T19:47:55.227Z,21.90
2023-11-18T19:52:51.587Z,20.27
2023-11-18T19:55:19.017Z,20.98
2023-11-18T19:57:45.881Z,21.27
2023-11-18T20:00:13.420Z,22.60
2023-11-18T20:02:42.398Z,22.38
2023-11-18T20:05:10.353Z,23.83
2023-11-18T20:07:37.411Z,24.17
2023-11-18T20:10:04.087Z,21.15
2023-11-18T20:12:33.210Z,22.15
2023-11-18T20:14:59.969Z,21.55
2023-11-18T20:17:26.468Z,21.70
2023-11-18T20:19:54.114Z,23.52
2023-11-18T20:22:20.741Z,20.63
2023-11-18T20:24:47.218Z,21.33
2023-11-18T20:27:13.711Z,25.02
2023-11-18T20:29:41.791Z,22.77
2023-11-18T20:32:09.100Z,23.27
2023-11-18T20:34:35.848Z,22.80
2023-11-18T20:37:02.427Z,21.58
2023-11-18T20:39:28.995Z,24.23
2023-11-18T20:41:55.619Z,22.50
2023-11-18T20:44:22.448Z,23.90
2023-11-18T20:46:51.099Z,24.30
2023-11-18T20:49:18.667Z,23.55
2023-11-18T20:51:45.469Z,22.95
2023-11-18T20:54:12.058Z,23.17
2023-11-18T20:56:38.676Z,23.92
2023-11-18T20:59:05.386Z,26.00
2023-11-18T21:01:32.062Z,27.55
2023-11-18T21:03:58.768Z,23.92
2023-11-18T21:06:25.485Z,26.58
2023-11-18T21:08:52.190Z,23.88
2023-11-18T21:11:18.794Z,24.95
2023-11-18T21:13:45.406Z,27.77
2023-11-18T21:16:13.911Z,23.60
2023-11-18T21:18:41.349Z,26.20
2023-11-18T21:21:08.185Z,24.35
2023-11-18T21:23:34.672Z,26.27
2023-11-18T21:26:01.260Z,28.25
2023-11-18T21:28:27.838Z,30.20
2023-11-18T21:30:54.919Z,24.85
2023-11-18T21:33:22.463Z,25.42
2023-11-18T21:35:49.310Z,25.17
2023-11-18T21:38:16.010Z,29.90
2023-11-18T21:40:42.736Z,24.90
2023-11-18T21:43:09.376Z,25.95
2023-11-18T21:45:38.522Z,25.13
2023-11-18T21:48:06.173Z,25.50
2023-11-18T21:50:34.526Z,23.83
2023-11-18T21:53:03.353Z,29.27
2023-11-18T21:55:30.174Z,24.35
2023-11-18T21:57:56.673Z,25.90
2023-11-18T22:00:23.358Z,27.85
2023-11-18T22:02:50.500Z,25.33
2023-11-18T22:05:20.354Z,25.85
2023-11-18T22:07:47.383Z,24.77
2023-11-18T22:10:17.650Z,23.08
2023-11-18T22:12:44.415Z,23.25
2023-11-18T22:15:11.142Z,23.15
2023-11-18T22:17:40.989Z,25.05
2023-11-18T22:20:09.605Z,30.80
2023-11-18T22:22:36.194Z,23.55
2023-11-18T22:25:02.812Z,25.80
2023-11-18T22:27:30.305Z,24.13
2023-11-18T22:29:56.804Z,25.08
2023-11-18T22:32:23.336Z,25.02
2023-11-18T22:34:49.925Z,21.45
2023-11-18T22:37:16.413Z,25.67
2023-11-18T22:39:43.564Z,20.25
2023-11-18T22:42:14.187Z,22.27
2023-11-18T22:44:46.536Z,26.35
2023-11-18T22:47:13.603Z,18.98
2023-11-18T22:49:41.764Z,23.15
2023-11-18T22:52:11.294Z,26.65
2023-11-18T22:54:40.379Z,20.55
2023-11-18T22:57:06.997Z,25.30
2023-11-18T22:59:34.467Z,21.02
2023-11-18T23:02:04.700Z,21.00
2023-11-18T23:04:31.289Z,18.42
2023-11-18T23:06:58.545Z,22.52
2023-11-18T23:09:25.991Z,18.55
2023-11-18T23:11:54.947Z,23.05
2023-11-18T23:14:22.048Z,22.60
2023-11-18T23:16:51.776Z,24.60
2023-11-18T23:19:18.271Z,19.67
2023-11-18T23:21:45.966Z,22.90
2023-11-18T23:24:13.545Z,24.33
2023-11-18T23:26:40.104Z,22.92
2023-11-18T23:29:08.546Z,18.60
2023-11-18T23:31:35.333Z,25.90
2023-11-18T23:34:04.969Z,19.60
2023-11-18T23:36:31.635Z,24.48
2023-11-18T23:41:27.587Z,18.48
2023-11-18T23:43:54.169Z,18.60
2023-11-18T23:46:20.822Z,20.05
2023-11-18T23:48:47.385Z,16.92
2023-11-18T23:51:13.979Z,19.67
2023-11-18T23:53:40.525Z,17.27
2023-11-18T23:56:07.468Z,22.23
2023-11-18T23:58:34.530Z,15.77
